sensor_id;sensor_type;location;lat;lon;timestamp;P1;durP1;ratioP1;P2;durP2;ratioP2
12802;SDS011;6465;42.700;23.278;2024-01-11T00:00:09;25.93;;;17.20;;
12802;SDS011;6465;42.700;23.278;2024-01-11T00:02:37;21.50;;;15.10;;
12802;SDS011;6465;42.700;23.278;2024-01-11T00:05:06;22.77;;;16.07;;
12802;SDS011;6465;42.700;23.278;2024-01-11T00:07:33;20.33;;;15.03;;
12802;SDS011;6465;42.700;23.278;2024-01-11T00:10:01;26.33;;;16.47;;
12802;SDS011;6465;42.700;23.278;2024-01-11T00:12:28;29.80;;;21.60;;
12802;SDS011;6465;42.700;23.278;2024-01-11T00:14:56;27.10;;;19.10;;
12802;SDS011;6465;42.700;23.278;2024-01-11T00:17:24;35.97;;;21.03;;
12802;SDS011;6465;42.700;23.278;2024-01-11T00:19:51;34.73;;;21.40;;
12802;SDS011;6465;42.700;23.278;2024-01-11T00:22:20;34.50;;;20.53;;
12802;SDS011;6465;42.700;23.278;2024-01-11T00:24:47;45.80;;;25.00;;
12802;SDS011;6465;42.700;23.278;2024-01-11T00:27:14;35.57;;;23.30;;
12802;SDS011;6465;42.700;23.278;2024-01-11T00:29:41;42.00;;;25.63;;
12802;SDS011;6465;42.700;23.278;2024-01-11T00:32:08;34.07;;;22.30;;
12802;SDS011;6465;42.700;23.278;2024-01-11T00:34:35;28.57;;;17.43;;
12802;SDS011;6465;42.700;23.278;2024-01-11T00:37:02;28.13;;;17.27;;
12802;SDS011;6465;42.700;23.278;2024-01-11T00:39:30;27.50;;;17.53;;
12802;SDS011;6465;42.700;23.278;2024-01-11T00:41:57;26.87;;;17.43;;
12802;SDS011;6465;42.700;23.278;2024-01-11T00:44:24;30.60;;;19.57;;
12802;SDS011;6465;42.700;23.278;2024-01-11T00:46:51;28.57;;;18.27;;
12802;SDS011;6465;42.700;23.278;2024-01-11T00:49:18;26.17;;;17.63;;
12802;SDS011;6465;42.700;23.278;2024-01-11T00:51:44;32.03;;;18.60;;
12802;SDS011;6465;42.700;23.278;2024-01-11T00:54:11;40.20;;;22.17;;
12802;SDS011;6465;42.700;23.278;2024-01-11T00:56:40;45.23;;;25.73;;
12802;SDS011;6465;42.700;23.278;2024-01-11T00:59:07;31.17;;;20.97;;
12802;SDS011;6465;42.700;23.278;2024-01-11T01:01:34;40.10;;;23.50;;
12802;SDS011;6465;42.700;23.278;2024-01-11T01:04:01;116.33;;;58.23;;
12802;SDS011;6465;42.700;23.278;2024-01-11T01:06:28;78.23;;;42.87;;
12802;SDS011;6465;42.700;23.278;2024-01-11T01:08:55;44.40;;;30.23;;
12802;SDS011;6465;42.700;23.278;2024-01-11T01:11:22;39.43;;;24.17;;
12802;SDS011;6465;42.700;23.278;2024-01-11T01:13:50;41.90;;;26.80;;
12802;SDS011;6465;42.700;23.278;2024-01-11T01:16:17;47.43;;;29.43;;
12802;SDS011;6465;42.700;23.278;2024-01-11T01:18:44;46.00;;;27.53;;
12802;SDS011;6465;42.700;23.278;2024-01-11T01:21:11;36.70;;;24.23;;
12802;SDS011;6465;42.700;23.278;2024-01-11T01:23:37;45.17;;;28.37;;
12802;SDS011;6465;42.700;23.278;2024-01-11T01:26:06;55.07;;;33.33;;
12802;SDS011;6465;42.700;23.278;2024-01-11T01:28:33;65.23;;;41.40;;
12802;SDS011;6465;42.700;23.278;2024-01-11T01:31:02;72.90;;;40.57;;
12802;SDS011;6465;42.700;23.278;2024-01-11T01:33:29;63.13;;;37.50;;
12802;SDS011;6465;42.700;23.278;2024-01-11T01:35:56;50.57;;;32.60;;
12802;SDS011;6465;42.700;23.278;2024-01-11T01:38:23;53.13;;;30.80;;
12802;SDS011;6465;42.700;23.278;2024-01-11T01:40:50;54.93;;;31.47;;
12802;SDS011;6465;42.700;23.278;2024-01-11T01:43:17;59.43;;;35.33;;
12802;SDS011;6465;42.700;23.278;2024-01-11T01:45:44;46.27;;;29.10;;
12802;SDS011;6465;42.700;23.278;2024-01-11T01:48:13;70.27;;;36.73;;
12802;SDS011;6465;42.700;23.278;2024-01-11T01:50:40;67.47;;;39.40;;
12802;SDS011;6465;42.700;23.278;2024-01-11T01:53:07;60.53;;;34.87;;
12802;SDS011;6465;42.700;23.278;2024-01-11T01:55:35;59.40;;;36.30;;
12802;SDS011;6465;42.700;23.278;2024-01-11T01:58:02;59.83;;;34.00;;
12802;SDS011;6465;42.700;23.278;2024-01-11T02:00:30;55.93;;;33.17;;
12802;SDS011;6465;42.700;23.278;2024-01-11T02:02:58;54.93;;;33.03;;
12802;SDS011;6465;42.700;23.278;2024-01-11T02:05:26;54.90;;;33.53;;
12802;SDS011;6465;42.700;23.278;2024-01-11T02:07:53;53.40;;;33.10;;
12802;SDS011;6465;42.700;23.278;2024-01-11T02:10:22;53.63;;;33.00;;
12802;SDS011;6465;42.700;23.278;2024-01-11T02:12:51;56.53;;;34.17;;
12802;SDS011;6465;42.700;23.278;2024-01-11T02:15:18;51.63;;;31.27;;
12802;SDS011;6465;42.700;23.278;2024-01-11T02:17:45;52.47;;;32.57;;
12802;SDS011;6465;42.700;23.278;2024-01-11T02:20:12;45.07;;;27.60;;
12802;SDS011;6465;42.700;23.278;2024-01-11T02:22:41;43.87;;;28.00;;
12802;SDS011;6465;42.700;23.278;2024-01-11T02:25:13;50.47;;;28.90;;
12802;SDS011;6465;42.700;23.278;2024-01-11T02:27:46;44.03;;;27.17;;
12802;SDS011;6465;42.700;23.278;2024-01-11T02:30:13;43.73;;;28.27;;
12802;SDS011;6465;42.700;23.278;2024-01-11T02:32:40;42.80;;;27.50;;
12802;SDS011;6465;42.700;23.278;2024-01-11T02:35:09;44.23;;;26.13;;
12802;SDS011;6465;42.700;23.278;2024-01-11T02:37:37;41.53;;;25.87;;
12802;SDS011;6465;42.700;23.278;2024-01-11T02:40:05;38.73;;;24.07;;
12802;SDS011;6465;42.700;23.278;2024-01-11T02:42:35;39.67;;;22.90;;
12802;SDS011;6465;42.700;23.278;2024-01-11T02:45:02;37.80;;;24.00;;
12802;SDS011;6465;42.700;23.278;2024-01-11T02:47:29;37.40;;;22.40;;
12802;SDS011;6465;42.700;23.278;2024-01-11T02:49:56;34.13;;;21.13;;
12802;SDS011;6465;42.700;23.278;2024-01-11T02:52:23;32.63;;;20.00;;
12802;SDS011;6465;42.700;23.278;2024-01-11T02:54:50;28.60;;;18.83;;
12802;SDS011;6465;42.700;23.278;2024-01-11T02:57:17;35.83;;;19.60;;
12802;SDS011;6465;42.700;23.278;2024-01-11T02:59:46;26.70;;;19.53;;
12802;SDS011;6465;42.700;23.278;2024-01-11T03:02:12;26.90;;;17.73;;
12802;SDS011;6465;42.700;23.278;2024-01-11T03:04:39;28.93;;;17.87;;
12802;SDS011;6465;42.700;23.278;2024-01-11T03:07:06;29.60;;;20.77;;
12802;SDS011;6465;42.700;23.278;2024-01-11T03:09:33;32.27;;;18.60;;
12802;SDS011;6465;42.700;23.278;2024-01-11T03:12:00;26.87;;;19.07;;
12802;SDS011;6465;42.700;23.278;2024-01-11T03:14:27;28.80;;;18.63;;
12802;SDS011;6465;42.700;23.278;2024-01-11T03:16:55;21.67;;;16.07;;
12802;SDS011;6465;42.700;23.278;2024-01-11T03:19:22;26.77;;;18.37;;
12802;SDS011;6465;42.700;23.278;2024-01-11T03:21:49;30.60;;;19.30;;
12802;SDS011;6465;42.700;23.278;2024-01-11T03:24:16;39.10;;;26.07;;
12802;SDS011;6465;42.700;23.278;2024-01-11T03:26:43;43.10;;;27.30;;
12802;SDS011;6465;42.700;23.278;2024-01-11T03:29:10;47.50;;;29.10;;
12802;SDS011;6465;42.700;23.278;2024-01-11T03:31:37;68.13;;;40.97;;
12802;SDS011;6465;42.700;23.278;2024-01-11T03:34:08;97.23;;;58.00;;
12802;SDS011;6465;42.700;23.278;2024-01-11T03:36:34;104.37;;;65.43;;
12802;SDS011;6465;42.700;23.278;2024-01-11T03:39:01;85.37;;;54.17;;
12802;SDS011;6465;42.700;23.278;2024-01-11T03:41:28;55.57;;;38.40;;
12802;SDS011;6465;42.700;23.278;2024-01-11T03:43:55;40.63;;;28.80;;
12802;SDS011;6465;42.700;23.278;2024-01-11T03:46:22;41.47;;;24.30;;
12802;SDS011;6465;42.700;23.278;2024-01-11T03:48:49;37.40;;;22.30;;
12802;SDS011;6465;42.700;23.278;2024-01-11T03:51:19;30.30;;;17.20;;
12802;SDS011;6465;42.700;23.278;2024-01-11T03:53:46;29.77;;;19.23;;
12802;SDS011;6465;42.700;23.278;2024-01-11T03:56:13;31.57;;;17.50;;
12802;SDS011;6465;42.700;23.278;2024-01-11T03:58:40;37.37;;;23.03;;
12802;SDS011;6465;42.700;23.278;2024-01-11T04:01:09;40.53;;;24.10;;
12802;SDS011;6465;42.700;23.278;2024-01-11T04:03:36;49.10;;;31.83;;
12802;SDS011;6465;42.700;23.278;2024-01-11T04:06:04;71.07;;;54.20;;
12802;SDS011;6465;42.700;23.278;2024-01-11T04:08:32;62.37;;;49.83;;
12802;SDS011;6465;42.700;23.278;2024-01-11T04:11:01;43.27;;;32.37;;
12802;SDS011;6465;42.700;23.278;2024-01-11T04:13:29;30.80;;;21.63;;
12802;SDS011;6465;42.700;23.278;2024-01-11T04:15:56;27.67;;;20.77;;
12802;SDS011;6465;42.700;23.278;2024-01-11T04:18:23;29.33;;;22.43;;
12802;SDS011;6465;42.700;23.278;2024-01-11T04:20:50;23.80;;;17.80;;
12802;SDS011;6465;42.700;23.278;2024-01-11T04:23:16;21.23;;;13.97;;
12802;SDS011;6465;42.700;23.278;2024-01-11T04:25:45;18.73;;;13.10;;
12802;SDS011;6465;42.700;23.278;2024-01-11T04:28:12;19.13;;;13.47;;
12802;SDS011;6465;42.700;23.278;2024-01-11T04:30:39;16.77;;;11.60;;
12802;SDS011;6465;42.700;23.278;2024-01-11T04:33:06;17.23;;;11.60;;
12802;SDS011;6465;42.700;23.278;2024-01-11T04:35:33;18.53;;;11.57;;
12802;SDS011;6465;42.700;23.278;2024-01-11T04:38:00;20.47;;;12.77;;
12802;SDS011;6465;42.700;23.278;2024-01-11T04:40:27;19.83;;;12.93;;
12802;SDS011;6465;42.700;23.278;2024-01-11T04:42:55;15.40;;;11.67;;
12802;SDS011;6465;42.700;23.278;2024-01-11T04:45:22;37.77;;;25.47;;
12802;SDS011;6465;42.700;23.278;2024-01-11T04:47:50;18.53;;;13.50;;
12802;SDS011;6465;42.700;23.278;2024-01-11T04:50:17;15.67;;;11.93;;
12802;SDS011;6465;42.700;23.278;2024-01-11T04:52:44;20.97;;;11.53;;
12802;SDS011;6465;42.700;23.278;2024-01-11T04:55:11;19.17;;;12.20;;
12802;SDS011;6465;42.700;23.278;2024-01-11T04:57:38;16.70;;;11.57;;
12802;SDS011;6465;42.700;23.278;2024-01-11T05:00:07;18.80;;;11.27;;
12802;SDS011;6465;42.700;23.278;2024-01-11T05:02:34;25.83;;;16.47;;
12802;SDS011;6465;42.700;23.278;2024-01-11T05:05:01;34.70;;;25.53;;
12802;SDS011;6465;42.700;23.278;2024-01-11T05:07:28;69.93;;;44.47;;
12802;SDS011;6465;42.700;23.278;2024-01-11T05:09:55;232.43;;;116.47;;
12802;SDS011;6465;42.700;23.278;2024-01-11T05:12:22;303.57;;;149.97;;
12802;SDS011;6465;42.700;23.278;2024-01-11T05:14:49;319.93;;;169.13;;
12802;SDS011;6465;42.700;23.278;2024-01-11T05:17:17;249.23;;;138.97;;
12802;SDS011;6465;42.700;23.278;2024-01-11T05:19:44;82.27;;;45.80;;
12802;SDS011;6465;42.700;23.278;2024-01-11T05:22:11;38.50;;;24.00;;
12802;SDS011;6465;42.700;23.278;2024-01-11T05:24:38;33.57;;;21.43;;
12802;SDS011;6465;42.700;23.278;2024-01-11T05:27:05;29.37;;;19.87;;
12802;SDS011;6465;42.700;23.278;2024-01-11T05:29:32;27.60;;;16.20;;
12802;SDS011;6465;42.700;23.278;2024-01-11T05:31:59;37.87;;;24.23;;
12802;SDS011;6465;42.700;23.278;2024-01-11T05:34:27;21.80;;;15.27;;
12802;SDS011;6465;42.700;23.278;2024-01-11T05:36:55;20.50;;;13.80;;
12802;SDS011;6465;42.700;23.278;2024-01-11T05:39:22;25.03;;;17.20;;
12802;SDS011;6465;42.700;23.278;2024-01-11T05:41:49;29.47;;;18.40;;
12802;SDS011;6465;42.700;23.278;2024-01-11T05:44:16;20.67;;;15.17;;
12802;SDS011;6465;42.700;23.278;2024-01-11T05:46:42;38.87;;;29.57;;
12802;SDS011;6465;42.700;23.278;2024-01-11T05:49:09;76.70;;;53.30;;
12802;SDS011;6465;42.700;23.278;2024-01-11T05:51:38;103.87;;;73.00;;
12802;SDS011;6465;42.700;23.278;2024-01-11T05:54:05;90.73;;;61.57;;
12802;SDS011;6465;42.700;23.278;2024-01-11T05:56:31;40.43;;;28.30;;
12802;SDS011;6465;42.700;23.278;2024-01-11T05:58:58;29.60;;;21.80;;
12802;SDS011;6465;42.700;23.278;2024-01-11T06:01:25;34.83;;;26.77;;
12802;SDS011;6465;42.700;23.278;2024-01-11T06:03:52;39.10;;;31.33;;
12802;SDS011;6465;42.700;23.278;2024-01-11T06:06:20;25.07;;;20.27;;
12802;SDS011;6465;42.700;23.278;2024-01-11T06:08:48;35.03;;;21.17;;
12802;SDS011;6465;42.700;23.278;2024-01-11T06:11:15;38.07;;;29.30;;
12802;SDS011;6465;42.700;23.278;2024-01-11T06:13:43;43.40;;;34.33;;
12802;SDS011;6465;42.700;23.278;2024-01-11T06:16:10;52.67;;;38.97;;
12802;SDS011;6465;42.700;23.278;2024-01-11T06:18:37;35.93;;;31.73;;
12802;SDS011;6465;42.700;23.278;2024-01-11T06:21:04;27.43;;;17.67;;
12802;SDS011;6465;42.700;23.278;2024-01-11T06:23:31;24.43;;;15.20;;
12802;SDS011;6465;42.700;23.278;2024-01-11T06:25:59;27.37;;;20.97;;
12802;SDS011;6465;42.700;23.278;2024-01-11T06:28:26;25.23;;;17.93;;
12802;SDS011;6465;42.700;23.278;2024-01-11T06:30:53;18.93;;;15.13;;
12802;SDS011;6465;42.700;23.278;2024-01-11T06:33:20;32.30;;;21.37;;
12802;SDS011;6465;42.700;23.278;2024-01-11T06:35:47;38.30;;;26.50;;
12802;SDS011;6465;42.700;23.278;2024-01-11T06:38:14;24.90;;;19.43;;
12802;SDS011;6465;42.700;23.278;2024-01-11T06:40:41;37.03;;;24.03;;
12802;SDS011;6465;42.700;23.278;2024-01-11T06:43:09;43.87;;;24.37;;
12802;SDS011;6465;42.700;23.278;2024-01-11T06:45:36;44.33;;;27.27;;
12802;SDS011;6465;42.700;23.278;2024-01-11T06:48:04;102.83;;;52.30;;
12802;SDS011;6465;42.700;23.278;2024-01-11T06:50:32;45.03;;;27.67;;
12802;SDS011;6465;42.700;23.278;2024-01-11T06:52:59;32.20;;;20.50;;
12802;SDS011;6465;42.700;23.278;2024-01-11T06:55:26;22.23;;;15.23;;
12802;SDS011;6465;42.700;23.278;2024-01-11T06:57:53;19.47;;;14.47;;
12802;SDS011;6465;42.700;23.278;2024-01-11T07:00:22;19.20;;;14.50;;
12802;SDS011;6465;42.700;23.278;2024-01-11T07:02:49;22.53;;;15.07;;
12802;SDS011;6465;42.700;23.278;2024-01-11T07:05:16;29.50;;;19.07;;
12802;SDS011;6465;42.700;23.278;2024-01-11T07:07:43;29.47;;;18.23;;
12802;SDS011;6465;42.700;23.278;2024-01-11T07:10:10;27.50;;;17.97;;
12802;SDS011;6465;42.700;23.278;2024-01-11T07:12:37;23.97;;;18.10;;
12802;SDS011;6465;42.700;23.278;2024-01-11T07:15:07;28.13;;;20.47;;
12802;SDS011;6465;42.700;23.278;2024-01-11T07:17:36;32.67;;;18.97;;
12802;SDS011;6465;42.700;23.278;2024-01-11T07:20:03;23.10;;;16.97;;
12802;SDS011;6465;42.700;23.278;2024-01-11T07:22:33;26.33;;;16.83;;
12802;SDS011;6465;42.700;23.278;2024-01-11T07:24:59;26.53;;;16.47;;
12802;SDS011;6465;42.700;23.278;2024-01-11T07:27:26;25.03;;;17.03;;
12802;SDS011;6465;42.700;23.278;2024-01-11T07:29:53;28.23;;;17.00;;
12802;SDS011;6465;42.700;23.278;2024-01-11T07:32:20;30.53;;;18.03;;
12802;SDS011;6465;42.700;23.278;2024-01-11T07:34:48;25.40;;;18.10;;
12802;SDS011;6465;42.700;23.278;2024-01-11T07:37:15;26.07;;;16.60;;
12802;SDS011;6465;42.700;23.278;2024-01-11T07:39:42;24.47;;;16.67;;
12802;SDS011;6465;42.700;23.278;2024-01-11T07:42:09;26.43;;;18.10;;
12802;SDS011;6465;42.700;23.278;2024-01-11T07:44:36;28.63;;;17.23;;
12802;SDS011;6465;42.700;23.278;2024-01-11T07:47:03;30.97;;;18.00;;
12802;SDS011;6465;42.700;23.278;2024-01-11T07:49:31;26.57;;;17.97;;
12802;SDS011;6465;42.700;23.278;2024-01-11T07:51:59;29.53;;;18.63;;
12802;SDS011;6465;42.700;23.278;2024-01-11T07:54:26;30.43;;;20.63;;
12802;SDS011;6465;42.700;23.278;2024-01-11T07:56:54;36.90;;;22.17;;
12802;SDS011;6465;42.700;23.278;2024-01-11T07:59:21;36.00;;;23.03;;
12802;SDS011;6465;42.700;23.278;2024-01-11T08:01:47;40.13;;;25.90;;
12802;SDS011;6465;42.700;23.278;2024-01-11T08:04:15;38.00;;;24.20;;
12802;SDS011;6465;42.700;23.278;2024-01-11T08:06:41;41.77;;;25.90;;
12802;SDS011;6465;42.700;23.278;2024-01-11T08:09:10;37.77;;;24.57;;
12802;SDS011;6465;42.700;23.278;2024-01-11T08:11:38;32.87;;;21.80;;
12802;SDS011;6465;42.700;23.278;2024-01-11T08:14:06;31.93;;;22.00;;
12802;SDS011;6465;42.700;23.278;2024-01-11T08:16:33;34.87;;;22.17;;
12802;SDS011;6465;42.700;23.278;2024-01-11T08:19:00;38.50;;;25.37;;
12802;SDS011;6465;42.700;23.278;2024-01-11T08:21:27;31.00;;;22.57;;
12802;SDS011;6465;42.700;23.278;2024-01-11T08:23:55;36.50;;;24.23;;
12802;SDS011;6465;42.700;23.278;2024-01-11T08:26:23;52.83;;;32.70;;
12802;SDS011;6465;42.700;23.278;2024-01-11T08:28:50;37.70;;;26.83;;
12802;SDS011;6465;42.700;23.278;2024-01-11T08:31:18;42.00;;;29.37;;
12802;SDS011;6465;42.700;23.278;2024-01-11T08:33:46;36.20;;;25.97;;
12802;SDS011;6465;42.700;23.278;2024-01-11T08:36:13;39.00;;;26.47;;
12802;SDS011;6465;42.700;23.278;2024-01-11T08:38:40;43.23;;;27.93;;
12802;SDS011;6465;42.700;23.278;2024-01-11T08:41:07;44.07;;;28.43;;
12802;SDS011;6465;42.700;23.278;2024-01-11T08:43:35;43.63;;;27.97;;
12802;SDS011;6465;42.700;23.278;2024-01-11T08:46:02;41.83;;;28.20;;
12802;SDS011;6465;42.700;23.278;2024-01-11T08:48:29;46.10;;;31.23;;
12802;SDS011;6465;42.700;23.278;2024-01-11T08:50:56;42.93;;;29.57;;
12802;SDS011;6465;42.700;23.278;2024-01-11T08:53:23;51.17;;;28.00;;
12802;SDS011;6465;42.700;23.278;2024-01-11T08:55:51;40.67;;;26.30;;
12802;SDS011;6465;42.700;23.278;2024-01-11T08:58:18;39.40;;;26.80;;
12802;SDS011;6465;42.700;23.278;2024-01-11T09:00:46;42.93;;;27.40;;
12802;SDS011;6465;42.700;23.278;2024-01-11T09:03:13;42.23;;;26.23;;
12802;SDS011;6465;42.700;23.278;2024-01-11T09:05:42;36.73;;;26.10;;
12802;SDS011;6465;42.700;23.278;2024-01-11T09:08:09;36.20;;;25.10;;
12802;SDS011;6465;42.700;23.278;2024-01-11T09:10:35;36.23;;;25.03;;
12802;SDS011;6465;42.700;23.278;2024-01-11T09:13:02;36.17;;;25.33;;
12802;SDS011;6465;42.700;23.278;2024-01-11T09:15:29;35.57;;;24.33;;
12802;SDS011;6465;42.700;23.278;2024-01-11T09:17:58;33.07;;;23.13;;
12802;SDS011;6465;42.700;23.278;2024-01-11T09:20:25;32.77;;;22.13;;
12802;SDS011;6465;42.700;23.278;2024-01-11T09:22:52;31.63;;;22.13;;
12802;SDS011;6465;42.700;23.278;2024-01-11T09:25:19;34.10;;;24.70;;
12802;SDS011;6465;42.700;23.278;2024-01-11T09:27:46;40.23;;;23.80;;
12802;SDS011;6465;42.700;23.278;2024-01-11T09:30:13;32.00;;;23.80;;
12802;SDS011;6465;42.700;23.278;2024-01-11T09:32:40;33.70;;;22.70;;
12802;SDS011;6465;42.700;23.278;2024-01-11T09:35:09;35.43;;;23.30;;
12802;SDS011;6465;42.700;23.278;2024-01-11T09:37:36;32.23;;;21.07;;
12802;SDS011;6465;42.700;23.278;2024-01-11T09:40:03;30.90;;;21.30;;
12802;SDS011;6465;42.700;23.278;2024-01-11T09:42:35;31.50;;;21.57;;
12802;SDS011;6465;42.700;23.278;2024-01-11T09:45:02;29.70;;;20.73;;
12802;SDS011;6465;42.700;23.278;2024-01-11T09:47:33;26.53;;;17.90;;
12802;SDS011;6465;42.700;23.278;2024-01-11T09:50:02;28.03;;;19.23;;
12802;SDS011;6465;42.700;23.278;2024-01-11T09:52:31;31.77;;;20.10;;
12802;SDS011;6465;42.700;23.278;2024-01-11T09:54:58;29.80;;;19.87;;
12802;SDS011;6465;42.700;23.278;2024-01-11T09:57:26;28.73;;;20.97;;
12802;SDS011;6465;42.700;23.278;2024-01-11T09:59:55;29.10;;;19.60;;
12802;SDS011;6465;42.700;23.278;2024-01-11T10:02:24;28.47;;;20.63;;
12802;SDS011;6465;42.700;23.278;2024-01-11T10:04:51;23.37;;;17.80;;
12802;SDS011;6465;42.700;23.278;2024-01-11T10:07:19;26.07;;;18.00;;
12802;SDS011;6465;42.700;23.278;2024-01-11T10:09:51;23.47;;;16.00;;
12802;SDS011;6465;42.700;23.278;2024-01-11T10:12:18;22.10;;;15.93;;
12802;SDS011;6465;42.700;23.278;2024-01-11T10:14:48;24.10;;;16.37;;
12802;SDS011;6465;42.700;23.278;2024-01-11T10:17:15;25.67;;;17.17;;
12802;SDS011;6465;42.700;23.278;2024-01-11T10:19:42;27.97;;;19.67;;
12802;SDS011;6465;42.700;23.278;2024-01-11T10:22:09;35.00;;;23.43;;
12802;SDS011;6465;42.700;23.278;2024-01-11T10:24:38;35.63;;;25.07;;
12802;SDS011;6465;42.700;23.278;2024-01-11T10:27:07;37.70;;;24.70;;
12802;SDS011;6465;42.700;23.278;2024-01-11T10:29:35;38.40;;;24.80;;
12802;SDS011;6465;42.700;23.278;2024-01-11T10:32:03;47.17;;;30.13;;
12802;SDS011;6465;42.700;23.278;2024-01-11T10:34:30;68.80;;;37.00;;
12802;SDS011;6465;42.700;23.278;2024-01-11T10:36:58;32.40;;;22.23;;
12802;SDS011;6465;42.700;23.278;2024-01-11T10:39:26;35.13;;;21.70;;
12802;SDS011;6465;42.700;23.278;2024-01-11T10:41:57;30.70;;;21.57;;
12802;SDS011;6465;42.700;23.278;2024-01-11T10:44:33;32.63;;;20.43;;
12802;SDS011;6465;42.700;23.278;2024-01-11T10:47:02;28.40;;;20.73;;
12802;SDS011;6465;42.700;23.278;2024-01-11T10:49:31;32.07;;;18.67;;
12802;SDS011;6465;42.700;23.278;2024-01-11T10:52:00;30.53;;;19.10;;
12802;SDS011;6465;42.700;23.278;2024-01-11T10:54:29;26.63;;;17.80;;
12802;SDS011;6465;42.700;23.278;2024-01-11T10:56:58;27.50;;;17.90;;
12802;SDS011;6465;42.700;23.278;2024-01-11T10:59:26;26.67;;;18.00;;
12802;SDS011;6465;42.700;23.278;2024-01-11T11:01:55;22.63;;;15.87;;
12802;SDS011;6465;42.700;23.278;2024-01-11T11:04:24;27.17;;;17.97;;
12802;SDS011;6465;42.700;23.278;2024-01-11T11:06:54;26.93;;;16.10;;
12802;SDS011;6465;42.700;23.278;2024-01-11T11:09:22;29.30;;;16.23;;
12802;SDS011;6465;42.700;23.278;2024-01-11T11:11:49;24.90;;;15.57;;
12802;SDS011;6465;42.700;23.278;2024-01-11T11:14:16;25.47;;;16.80;;
12802;SDS011;6465;42.700;23.278;2024-01-11T11:16:44;20.37;;;14.03;;
12802;SDS011;6465;42.700;23.278;2024-01-11T11:19:13;45.17;;;26.77;;
12802;SDS011;6465;42.700;23.278;2024-01-11T11:21:43;54.70;;;33.93;;
12802;SDS011;6465;42.700;23.278;2024-01-11T11:24:12;25.77;;;16.43;;
12802;SDS011;6465;42.700;23.278;2024-01-11T11:26:39;18.93;;;13.00;;
12802;SDS011;6465;42.700;23.278;2024-01-11T11:29:06;14.73;;;10.87;;
12802;SDS011;6465;42.700;23.278;2024-01-11T11:31:35;15.63;;;11.30;;
12802;SDS011;6465;42.700;23.278;2024-01-11T11:34:03;15.23;;;10.63;;
12802;SDS011;6465;42.700;23.278;2024-01-11T11:36:32;13.03;;;11.07;;
12802;SDS011;6465;42.700;23.278;2024-01-11T11:38:59;18.60;;;12.47;;
12802;SDS011;6465;42.700;23.278;2024-01-11T11:41:27;12.10;;;9.80;;
12802;SDS011;6465;42.700;23.278;2024-01-11T11:44:00;12.33;;;9.20;;
12802;SDS011;6465;42.700;23.278;2024-01-11T11:46:27;14.23;;;9.23;;
12802;SDS011;6465;42.700;23.278;2024-01-11T11:48:54;14.63;;;10.83;;
12802;SDS011;6465;42.700;23.278;2024-01-11T11:51:22;14.37;;;9.97;;
12802;SDS011;6465;42.700;23.278;2024-01-11T11:53:51;12.90;;;8.80;;
12802;SDS011;6465;42.700;23.278;2024-01-11T11:56:19;10.83;;;9.27;;
12802;SDS011;6465;42.700;23.278;2024-01-11T11:58:47;12.93;;;10.17;;
12802;SDS011;6465;42.700;23.278;2024-01-11T12:01:17;14.27;;;9.37;;
12802;SDS011;6465;42.700;23.278;2024-01-11T12:03:45;11.80;;;8.73;;
12802;SDS011;6465;42.700;23.278;2024-01-11T12:06:15;13.87;;;8.43;;
12802;SDS011;6465;42.700;23.278;2024-01-11T12:08:43;12.47;;;8.93;;
12802;SDS011;6465;42.700;23.278;2024-01-11T12:11:13;11.47;;;9.17;;
12802;SDS011;6465;42.700;23.278;2024-01-11T12:13:41;12.53;;;8.40;;
12802;SDS011;6465;42.700;23.278;2024-01-11T12:16:09;11.17;;;8.60;;
12802;SDS011;6465;42.700;23.278;2024-01-11T12:18:37;10.47;;;8.10;;
12802;SDS011;6465;42.700;23.278;2024-01-11T12:21:04;13.07;;;6.93;;
12802;SDS011;6465;42.700;23.278;2024-01-11T12:23:33;9.70;;;7.20;;
12802;SDS011;6465;42.700;23.278;2024-01-11T12:26:01;8.20;;;5.90;;
12802;SDS011;6465;42.700;23.278;2024-01-11T12:28:32;8.00;;;5.37;;
12802;SDS011;6465;42.700;23.278;2024-01-11T12:30:59;4.23;;;3.83;;
12802;SDS011;6465;42.700;23.278;2024-01-11T12:33:26;5.00;;;4.27;;
12802;SDS011;6465;42.700;23.278;2024-01-11T12:35:54;4.33;;;3.93;;
12802;SDS011;6465;42.700;23.278;2024-01-11T12:38:21;4.23;;;3.83;;
12802;SDS011;6465;42.700;23.278;2024-01-11T12:40:48;5.30;;;3.70;;
12802;SDS011;6465;42.700;23.278;2024-01-11T12:43:15;4.27;;;3.80;;
12802;SDS011;6465;42.700;23.278;2024-01-11T12:45:44;4.30;;;3.43;;
12802;SDS011;6465;42.700;23.278;2024-01-11T12:48:11;4.63;;;4.23;;
12802;SDS011;6465;42.700;23.278;2024-01-11T12:50:41;72.90;;;44.70;;
12802;SDS011;6465;42.700;23.278;2024-01-11T12:53:09;50.00;;;34.63;;
12802;SDS011;6465;42.700;23.278;2024-01-11T12:55:43;4.00;;;3.70;;
12802;SDS011;6465;42.700;23.278;2024-01-11T12:58:10;5.70;;;4.10;;
12802;SDS011;6465;42.700;23.278;2024-01-11T13:00:37;4.27;;;3.87;;
12802;SDS011;6465;42.700;23.278;2024-01-11T13:03:06;4.93;;;4.43;;
12802;SDS011;6465;42.700;23.278;2024-01-11T13:05:35;4.57;;;4.13;;
12802;SDS011;6465;42.700;23.278;2024-01-11T13:08:03;5.57;;;4.03;;
12802;SDS011;6465;42.700;23.278;2024-01-11T13:10:34;4.50;;;3.97;;
12802;SDS011;6465;42.700;23.278;2024-01-11T13:13:01;4.33;;;3.93;;
12802;SDS011;6465;42.700;23.278;2024-01-11T13:15:29;5.30;;;4.07;;
12802;SDS011;6465;42.700;23.278;2024-01-11T13:17:57;5.10;;;4.40;;
12802;SDS011;6465;42.700;23.278;2024-01-11T13:20:26;4.17;;;3.77;;
12802;SDS011;6465;42.700;23.278;2024-01-11T13:25:39;3.87;;;3.50;;
12802;SDS011;6465;42.700;23.278;2024-01-11T13:28:06;3.73;;;3.43;;
12802;SDS011;6465;42.700;23.278;2024-01-11T13:30:33;3.37;;;3.07;;
12802;SDS011;6465;42.700;23.278;2024-01-11T13:33:00;3.90;;;3.60;;
12802;SDS011;6465;42.700;23.278;2024-01-11T13:35:28;4.80;;;3.23;;
12802;SDS011;6465;42.700;23.278;2024-01-11T13:37:55;4.37;;;4.03;;
12802;SDS011;6465;42.700;23.278;2024-01-11T13:40:22;3.53;;;3.10;;
12802;SDS011;6465;42.700;23.278;2024-01-11T13:42:50;4.93;;;3.73;;
12802;SDS011;6465;42.700;23.278;2024-01-11T13:45:17;5.33;;;4.20;;
12802;SDS011;6465;42.700;23.278;2024-01-11T13:47:44;5.40;;;3.97;;
12802;SDS011;6465;42.700;23.278;2024-01-11T13:50:11;5.17;;;4.40;;
12802;SDS011;6465;42.700;23.278;2024-01-11T13:52:40;6.83;;;4.73;;
12802;SDS011;6465;42.700;23.278;2024-01-11T13:55:07;6.20;;;5.07;;
12802;SDS011;6465;42.700;23.278;2024-01-11T13:57:35;6.87;;;5.63;;
12802;SDS011;6465;42.700;23.278;2024-01-11T14:00:03;5.13;;;4.60;;
12802;SDS011;6465;42.700;23.278;2024-01-11T14:02:31;4.57;;;4.13;;
12802;SDS011;6465;42.700;23.278;2024-01-11T14:04:58;4.57;;;4.20;;
12802;SDS011;6465;42.700;23.278;2024-01-11T14:07:25;5.23;;;4.60;;
12802;SDS011;6465;42.700;23.278;2024-01-11T14:09:54;4.70;;;4.20;;
12802;SDS011;6465;42.700;23.278;2024-01-11T14:12:21;15.40;;;11.63;;
12802;SDS011;6465;42.700;23.278;2024-01-11T14:14:48;20.43;;;14.17;;
12802;SDS011;6465;42.700;23.278;2024-01-11T14:17:15;7.17;;;5.80;;
12802;SDS011;6465;42.700;23.278;2024-01-11T14:19:42;4.73;;;4.33;;
12802;SDS011;6465;42.700;23.278;2024-01-11T14:22:09;4.10;;;3.80;;
12802;SDS011;6465;42.700;23.278;2024-01-11T14:24:36;4.50;;;4.10;;
12802;SDS011;6465;42.700;23.278;2024-01-11T14:27:04;5.47;;;4.70;;
12802;SDS011;6465;42.700;23.278;2024-01-11T14:29:31;4.23;;;3.93;;